sensor_id;sensor_type;location;lat;lon;timestamp;P1;durP1;ratioP1;P2;durP2;ratioP2
42006;SDS011;27696;42.704;23.304;2023-03-04T00:00:35;20.15;;;15.38;;
42006;SDS011;27696;42.704;23.304;2023-03-04T00:03:00;19.60;;;16.02;;
42006;SDS011;27696;42.704;23.304;2023-03-04T00:05:26;21.38;;;16.23;;
42006;SDS011;27696;42.704;23.304;2023-03-04T00:07:51;18.80;;;15.10;;
42006;SDS011;27696;42.704;23.304;2023-03-04T00:10:17;21.23;;;16.67;;
42006;SDS011;27696;42.704;23.304;2023-03-04T00:12:42;22.45;;;16.88;;
42006;SDS011;27696;42.704;23.304;2023-03-04T00:15:08;20.70;;;16.67;;
42006;SDS011;27696;42.704;23.304;2023-03-04T00:17:33;18.65;;;16.23;;
42006;SDS011;27696;42.704;23.304;2023-03-04T00:19:59;20.70;;;15.57;;
42006;SDS011;27696;42.704;23.304;2023-03-04T00:22:24;20.25;;;16.30;;
42006;SDS011;27696;42.704;23.304;2023-03-04T00:24:49;19.98;;;15.73;;
42006;SDS011;27696;42.704;23.304;2023-03-04T00:27:15;18.60;;;16.20;;
42006;SDS011;27696;42.704;23.304;2023-03-04T00:29:40;19.50;;;15.98;;
42006;SDS011;27696;42.704;23.304;2023-03-04T00:32:06;20.23;;;17.20;;
42006;SDS011;27696;42.704;23.304;2023-03-04T00:34:31;20.25;;;17.10;;
42006;SDS011;27696;42.704;23.304;2023-03-04T00:36:56;22.95;;;17.92;;
42006;SDS011;27696;42.704;23.304;2023-03-04T00:39:26;21.73;;;17.48;;
42006;SDS011;27696;42.704;23.304;2023-03-04T00:41:52;20.90;;;17.30;;
42006;SDS011;27696;42.704;23.304;2023-03-04T00:44:17;19.85;;;17.23;;
42006;SDS011;27696;42.704;23.304;2023-03-04T00:46:43;21.83;;;17.90;;
42006;SDS011;27696;42.704;23.304;2023-03-04T00:49:08;19.10;;;16.95;;
42006;SDS011;27696;42.704;23.304;2023-03-04T00:51:34;19.08;;;15.90;;
42006;SDS011;27696;42.704;23.304;2023-03-04T00:53:59;19.80;;;16.38;;
42006;SDS011;27696;42.704;23.304;2023-03-04T00:56:24;22.20;;;17.42;;
42006;SDS011;27696;42.704;23.304;2023-03-04T00:58:50;18.33;;;16.13;;
42006;SDS011;27696;42.704;23.304;2023-03-04T01:01:15;18.55;;;15.82;;
42006;SDS011;27696;42.704;23.304;2023-03-04T01:03:41;18.38;;;15.80;;
42006;SDS011;27696;42.704;23.304;2023-03-04T01:06:06;18.58;;;15.50;;
42006;SDS011;27696;42.704;23.304;2023-03-04T01:08:32;20.45;;;16.38;;
42006;SDS011;27696;42.704;23.304;2023-03-04T01:10:58;20.13;;;16.27;;
42006;SDS011;27696;42.704;23.304;2023-03-04T01:13:23;18.02;;;15.57;;
42006;SDS011;27696;42.704;23.304;2023-03-04T01:15:48;17.60;;;14.95;;
42006;SDS011;27696;42.704;23.304;2023-03-04T01:18:14;17.30;;;14.95;;
42006;SDS011;27696;42.704;23.304;2023-03-04T01:20:39;17.20;;;14.57;;
42006;SDS011;27696;42.704;23.304;2023-03-04T01:23:05;20.15;;;15.00;;
42006;SDS011;27696;42.704;23.304;2023-03-04T01:25:30;17.15;;;14.65;;
42006;SDS011;27696;42.704;23.304;2023-03-04T01:27:56;16.95;;;14.48;;
42006;SDS011;27696;42.704;23.304;2023-03-04T01:30:22;19.10;;;14.77;;
42006;SDS011;27696;42.704;23.304;2023-03-04T01:32:47;18.35;;;14.60;;
42006;SDS011;27696;42.704;23.304;2023-03-04T01:35:12;16.73;;;14.65;;
42006;SDS011;27696;42.704;23.304;2023-03-04T01:37:38;19.10;;;15.45;;
42006;SDS011;27696;42.704;23.304;2023-03-04T01:40:03;20.55;;;15.35;;
42006;SDS011;27696;42.704;23.304;2023-03-04T01:42:32;19.38;;;16.38;;
42006;SDS011;27696;42.704;23.304;2023-03-04T01:44:59;18.67;;;15.55;;
42006;SDS011;27696;42.704;23.304;2023-03-04T01:47:26;21.83;;;16.65;;
42006;SDS011;27696;42.704;23.304;2023-03-04T01:49:54;18.30;;;15.82;;
42006;SDS011;27696;42.704;23.304;2023-03-04T01:52:20;19.90;;;16.33;;
42006;SDS011;27696;42.704;23.304;2023-03-04T01:54:46;20.10;;;16.45;;
42006;SDS011;27696;42.704;23.304;2023-03-04T01:57:16;19.58;;;16.48;;
42006;SDS011;27696;42.704;23.304;2023-03-04T01:59:43;18.63;;;16.33;;
42006;SDS011;27696;42.704;23.304;2023-03-04T02:02:09;19.30;;;16.23;;
42006;SDS011;27696;42.704;23.304;2023-03-04T02:04:36;18.13;;;15.27;;
42006;SDS011;27696;42.704;23.304;2023-03-04T02:07:02;20.40;;;16.55;;
42006;SDS011;27696;42.704;23.304;2023-03-04T02:09:28;20.00;;;16.27;;
42006;SDS011;27696;42.704;23.304;2023-03-04T02:11:54;19.88;;;15.85;;
42006;SDS011;27696;42.704;23.304;2023-03-04T02:14:20;20.40;;;15.38;;
42006;SDS011;27696;42.704;23.304;2023-03-04T02:16:46;17.95;;;15.93;;
42006;SDS011;27696;42.704;23.304;2023-03-04T02:19:13;20.58;;;15.88;;
42006;SDS011;27696;42.704;23.304;2023-03-04T02:21:43;19.08;;;15.73;;
42006;SDS011;27696;42.704;23.304;2023-03-04T02:24:16;19.77;;;16.33;;
42006;SDS011;27696;42.704;23.304;2023-03-04T02:26:46;21.40;;;16.20;;
42006;SDS011;27696;42.704;23.304;2023-03-04T02:29:12;19.05;;;15.93;;
42006;SDS011;27696;42.704;23.304;2023-03-04T02:31:43;20.17;;;16.13;;
42006;SDS011;27696;42.704;23.304;2023-03-04T02:34:16;21.67;;;15.63;;
42006;SDS011;27696;42.704;23.304;2023-03-04T02:36:44;19.33;;;15.98;;
42006;SDS011;27696;42.704;23.304;2023-03-04T02:39:11;21.65;;;16.65;;
42006;SDS011;27696;42.704;23.304;2023-03-04T02:41:37;18.58;;;16.52;;
42006;SDS011;27696;42.704;23.304;2023-03-04T02:44:02;19.95;;;16.50;;
42006;SDS011;27696;42.704;23.304;2023-03-04T02:46:33;18.10;;;15.52;;
42006;SDS011;27696;42.704;23.304;2023-03-04T02:48:58;18.13;;;15.18;;
42006;SDS011;27696;42.704;23.304;2023-03-04T02:51:24;19.58;;;15.48;;
42006;SDS011;27696;42.704;23.304;2023-03-04T02:53:49;21.08;;;16.02;;
42006;SDS011;27696;42.704;23.304;2023-03-04T02:56:15;20.35;;;15.77;;
42006;SDS011;27696;42.704;23.304;2023-03-04T02:58:40;19.40;;;16.08;;
42006;SDS011;27696;42.704;23.304;2023-03-04T03:01:07;19.17;;;16.38;;
42006;SDS011;27696;42.704;23.304;2023-03-04T03:03:32;19.85;;;15.93;;
42006;SDS011;27696;42.704;23.304;2023-03-04T03:05:58;21.88;;;16.08;;
42006;SDS011;27696;42.704;23.304;2023-03-04T03:08:23;21.77;;;16.10;;
42006;SDS011;27696;42.704;23.304;2023-03-04T03:10:49;21.17;;;17.13;;
42006;SDS011;27696;42.704;23.304;2023-03-04T03:13:14;19.13;;;16.60;;
42006;SDS011;27696;42.704;23.304;2023-03-04T03:15:39;21.85;;;17.10;;
42006;SDS011;27696;42.704;23.304;2023-03-04T03:18:07;19.27;;;16.17;;
42006;SDS011;27696;42.704;23.304;2023-03-04T03:20:33;21.55;;;17.50;;
42006;SDS011;27696;42.704;23.304;2023-03-04T03:22:59;20.65;;;16.98;;
42006;SDS011;27696;42.704;23.304;2023-03-04T03:25:24;21.90;;;17.08;;
42006;SDS011;27696;42.704;23.304;2023-03-04T03:27:50;20.80;;;17.75;;
42006;SDS011;27696;42.704;23.304;2023-03-04T03:30:15;26.48;;;17.95;;
42006;SDS011;27696;42.704;23.304;2023-03-04T03:32:40;19.25;;;16.42;;
42006;SDS011;27696;42.704;23.304;2023-03-04T03:35:06;22.52;;;17.50;;
42006;SDS011;27696;42.704;23.304;2023-03-04T03:37:32;21.73;;;17.35;;
42006;SDS011;27696;42.704;23.304;2023-03-04T03:39:57;25.27;;;19.27;;
42006;SDS011;27696;42.704;23.304;2023-03-04T03:42:22;24.17;;;18.52;;
42006;SDS011;27696;42.704;23.304;2023-03-04T03:44:48;22.80;;;18.50;;
42006;SDS011;27696;42.704;23.304;2023-03-04T03:47:14;23.77;;;18.75;;
42006;SDS011;27696;42.704;23.304;2023-03-04T03:49:39;23.67;;;18.58;;
42006;SDS011;27696;42.704;23.304;2023-03-04T03:52:05;26.10;;;19.40;;
42006;SDS011;27696;42.704;23.304;2023-03-04T03:54:32;23.83;;;18.95;;
42006;SDS011;27696;42.704;23.304;2023-03-04T03:56:57;26.60;;;20.65;;
42006;SDS011;27696;42.704;23.304;2023-03-04T03:59:23;24.25;;;20.40;;
42006;SDS011;27696;42.704;23.304;2023-03-04T04:01:48;25.35;;;20.38;;
42006;SDS011;27696;42.704;23.304;2023-03-04T04:04:14;24.73;;;19.17;;
42006;SDS011;27696;42.704;23.304;2023-03-04T04:06:39;27.35;;;20.35;;
42006;SDS011;27696;42.704;23.304;2023-03-04T04:09:05;24.45;;;19.60;;
42006;SDS011;27696;42.704;23.304;2023-03-04T04:11:30;27.17;;;21.33;;
42006;SDS011;27696;42.704;23.304;2023-03-04T04:13:55;27.65;;;19.35;;
42006;SDS011;27696;42.704;23.304;2023-03-04T04:16:21;28.52;;;20.80;;
42006;SDS011;27696;42.704;23.304;2023-03-04T04:18:46;26.98;;;21.40;;
42006;SDS011;27696;42.704;23.304;2023-03-04T04:21:12;26.80;;;20.67;;
42006;SDS011;27696;42.704;23.304;2023-03-04T04:23:38;28.80;;;21.92;;
42006;SDS011;27696;42.704;23.304;2023-03-04T04:26:03;28.23;;;21.85;;
42006;SDS011;27696;42.704;23.304;2023-03-04T04:28:29;30.23;;;23.52;;
42006;SDS011;27696;42.704;23.304;2023-03-04T04:30:54;32.45;;;21.95;;
42006;SDS011;27696;42.704;23.304;2023-03-04T04:33:20;29.13;;;20.85;;
42006;SDS011;27696;42.704;23.304;2023-03-04T04:35:45;33.92;;;23.20;;
42006;SDS011;27696;42.704;23.304;2023-03-04T04:38:10;33.40;;;22.50;;
42006;SDS011;27696;42.704;23.304;2023-03-04T04:40:36;30.70;;;22.40;;
42006;SDS011;27696;42.704;23.304;2023-03-04T04:43:01;31.75;;;22.23;;
42006;SDS011;27696;42.704;23.304;2023-03-04T04:45:27;38.90;;;26.05;;
42006;SDS011;27696;42.704;23.304;2023-03-04T04:47:53;34.55;;;26.08;;
42006;SDS011;27696;42.704;23.304;2023-03-04T04:50:21;33.70;;;25.58;;
42006;SDS011;27696;42.704;23.304;2023-03-04T04:52:49;33.17;;;24.50;;
42006;SDS011;27696;42.704;23.304;2023-03-04T04:55:15;38.22;;;26.02;;
42006;SDS011;27696;42.704;23.304;2023-03-04T04:57:40;38.55;;;26.45;;
42006;SDS011;27696;42.704;23.304;2023-03-04T05:00:05;38.28;;;26.77;;
42006;SDS011;27696;42.704;23.304;2023-03-04T05:02:32;35.47;;;27.63;;
42006;SDS011;27696;42.704;23.304;2023-03-04T05:05:02;33.90;;;25.38;;
42006;SDS011;27696;42.704;23.304;2023-03-04T05:07:30;38.63;;;26.90;;
42006;SDS011;27696;42.704;23.304;2023-03-04T05:09:55;35.33;;;25.13;;
42006;SDS011;27696;42.704;23.304;2023-03-04T05:12:21;46.95;;;27.50;;
42006;SDS011;27696;42.704;23.304;2023-03-04T05:14:46;39.53;;;28.65;;
42006;SDS011;27696;42.704;23.304;2023-03-04T05:17:12;35.75;;;27.40;;
42006;SDS011;27696;42.704;23.304;2023-03-04T05:19:37;34.97;;;27.00;;
42006;SDS011;27696;42.704;23.304;2023-03-04T05:22:02;36.00;;;26.20;;
42006;SDS011;27696;42.704;23.304;2023-03-04T05:24:28;40.33;;;26.13;;
42006;SDS011;27696;42.704;23.304;2023-03-04T05:26:53;32.95;;;24.08;;
42006;SDS011;27696;42.704;23.304;2023-03-04T05:29:19;38.65;;;26.33;;
42006;SDS011;27696;42.704;23.304;2023-03-04T05:31:44;38.50;;;27.10;;
42006;SDS011;27696;42.704;23.304;2023-03-04T05:34:10;39.15;;;26.25;;
42006;SDS011;27696;42.704;23.304;2023-03-04T05:36:35;39.53;;;28.25;;
42006;SDS011;27696;42.704;23.304;2023-03-04T05:39:00;35.50;;;26.58;;
42006;SDS011;27696;42.704;23.304;2023-03-04T05:41:26;36.75;;;26.80;;
42006;SDS011;27696;42.704;23.304;2023-03-04T05:43:51;36.13;;;26.27;;
42006;SDS011;27696;42.704;23.304;2023-03-04T05:46:17;28.88;;;23.45;;
42006;SDS011;27696;42.704;23.304;2023-03-04T05:48:43;44.83;;;33.72;;
42006;SDS011;27696;42.704;23.304;2023-03-04T05:51:08;31.25;;;25.42;;
42006;SDS011;27696;42.704;23.304;2023-03-04T05:53:34;29.20;;;23.02;;
42006;SDS011;27696;42.704;23.304;2023-03-04T05:56:07;30.35;;;23.08;;
42006;SDS011;27696;42.704;23.304;2023-03-04T05:58:34;34.70;;;24.35;;
42006;SDS011;27696;42.704;23.304;2023-03-04T06:00:59;34.40;;;26.10;;
42006;SDS011;27696;42.704;23.304;2023-03-04T06:03:25;32.00;;;23.48;;
42006;SDS011;27696;42.704;23.304;2023-03-04T06:05:50;30.83;;;21.83;;
42006;SDS011;27696;42.704;23.304;2023-03-04T06:08:16;29.88;;;21.40;;
42006;SDS011;27696;42.704;23.304;2023-03-04T06:10:41;27.08;;;22.00;;
42006;SDS011;27696;42.704;23.304;2023-03-04T06:13:07;25.77;;;20.05;;
42006;SDS011;27696;42.704;23.304;2023-03-04T06:15:32;32.13;;;21.58;;
42006;SDS011;27696;42.704;23.304;2023-03-04T06:17:58;35.88;;;27.95;;
42006;SDS011;27696;42.704;23.304;2023-03-04T06:20:23;35.17;;;24.00;;
42006;SDS011;27696;42.704;23.304;2023-03-04T06:22:48;28.17;;;20.58;;
42006;SDS011;27696;42.704;23.304;2023-03-04T06:25:14;27.70;;;20.42;;
42006;SDS011;27696;42.704;23.304;2023-03-04T06:27:39;23.52;;;17.42;;
42006;SDS011;27696;42.704;23.304;2023-03-04T06:30:05;28.20;;;17.65;;
42006;SDS011;27696;42.704;23.304;2023-03-04T06:32:31;21.95;;;16.67;;
42006;SDS011;27696;42.704;23.304;2023-03-04T06:34:57;22.52;;;17.83;;
42006;SDS011;27696;42.704;23.304;2023-03-04T06:37:22;26.15;;;19.20;;
42006;SDS011;27696;42.704;23.304;2023-03-04T06:39:48;27.48;;;21.20;;
42006;SDS011;27696;42.704;23.304;2023-03-04T06:42:13;28.23;;;20.73;;
42006;SDS011;27696;42.704;23.304;2023-03-04T06:44:39;27.95;;;19.75;;
42006;SDS011;27696;42.704;23.304;2023-03-04T06:47:04;26.85;;;21.40;;
42006;SDS011;27696;42.704;23.304;2023-03-04T06:49:29;31.40;;;21.70;;
42006;SDS011;27696;42.704;23.304;2023-03-04T06:51:55;25.40;;;20.13;;
42006;SDS011;27696;42.704;23.304;2023-03-04T06:54:20;23.95;;;18.58;;
42006;SDS011;27696;42.704;23.304;2023-03-04T06:56:46;23.15;;;19.10;;
42006;SDS011;27696;42.704;23.304;2023-03-04T06:59:11;21.80;;;16.08;;
42006;SDS011;27696;42.704;23.304;2023-03-04T07:01:40;20.52;;;14.13;;
42006;SDS011;27696;42.704;23.304;2023-03-04T07:04:05;17.88;;;14.27;;
42006;SDS011;27696;42.704;23.304;2023-03-04T07:06:31;19.63;;;15.30;;
42006;SDS011;27696;42.704;23.304;2023-03-04T07:08:56;17.90;;;13.90;;
42006;SDS011;27696;42.704;23.304;2023-03-04T07:11:22;19.55;;;14.82;;
42006;SDS011;27696;42.704;23.304;2023-03-04T07:13:47;19.10;;;14.55;;
42006;SDS011;27696;42.704;23.304;2023-03-04T07:16:14;18.25;;;15.07;;
42006;SDS011;27696;42.704;23.304;2023-03-04T07:18:41;18.45;;;14.70;;
42006;SDS011;27696;42.704;23.304;2023-03-04T07:21:07;20.48;;;14.98;;
42006;SDS011;27696;42.704;23.304;2023-03-04T07:23:33;20.10;;;14.38;;
42006;SDS011;27696;42.704;23.304;2023-03-04T07:25:59;20.05;;;14.05;;
42006;SDS011;27696;42.704;23.304;2023-03-04T07:28:24;29.40;;;14.38;;
42006;SDS011;27696;42.704;23.304;2023-03-04T07:30:50;22.83;;;14.80;;
42006;SDS011;27696;42.704;23.304;2023-03-04T07:33:15;22.80;;;14.18;;
42006;SDS011;27696;42.704;23.304;2023-03-04T07:35:41;25.50;;;15.85;;
42006;SDS011;27696;42.704;23.304;2023-03-04T07:38:08;18.20;;;13.65;;
42006;SDS011;27696;42.704;23.304;2023-03-04T07:40:33;22.70;;;15.55;;
42006;SDS011;27696;42.704;23.304;2023-03-04T07:42:59;21.98;;;16.23;;
42006;SDS011;27696;42.704;23.304;2023-03-04T07:45:24;24.70;;;16.40;;
42006;SDS011;27696;42.704;23.304;2023-03-04T07:47:50;21.92;;;17.08;;
42006;SDS011;27696;42.704;23.304;2023-03-04T07:50:16;20.92;;;17.42;;
42006;SDS011;27696;42.704;23.304;2023-03-04T07:52:43;22.20;;;16.60;;
42006;SDS011;27696;42.704;23.304;2023-03-04T07:55:10;28.40;;;19.10;;
42006;SDS011;27696;42.704;23.304;2023-03-04T07:57:37;20.77;;;16.13;;
42006;SDS011;27696;42.704;23.304;2023-03-04T08:00:03;27.38;;;18.38;;
42006;SDS011;27696;42.704;23.304;2023-03-04T08:02:29;20.27;;;15.90;;
42006;SDS011;27696;42.704;23.304;2023-03-04T08:04:54;25.45;;;16.42;;
42006;SDS011;27696;42.704;23.304;2023-03-04T08:07:20;21.40;;;15.85;;
42006;SDS011;27696;42.704;23.304;2023-03-04T08:09:45;20.27;;;14.30;;
42006;SDS011;27696;42.704;23.304;2023-03-04T08:12:10;22.33;;;14.80;;
42006;SDS011;27696;42.704;23.304;2023-03-04T08:14:36;22.45;;;13.60;;
42006;SDS011;27696;42.704;23.304;2023-03-04T08:17:01;21.23;;;14.32;;
42006;SDS011;27696;42.704;23.304;2023-03-04T08:19:27;19.45;;;13.45;;
42006;SDS011;27696;42.704;23.304;2023-03-04T08:21:52;16.77;;;12.43;;
42006;SDS011;27696;42.704;23.304;2023-03-04T08:24:18;22.83;;;13.20;;
42006;SDS011;27696;42.704;23.304;2023-03-04T08:26:45;18.63;;;13.65;;
42006;SDS011;27696;42.704;23.304;2023-03-04T08:29:15;18.60;;;13.60;;
42006;SDS011;27696;42.704;23.304;2023-03-04T08:31:44;19.80;;;14.82;;
42006;SDS011;27696;42.704;23.304;2023-03-04T08:34:10;22.48;;;14.32;;
42006;SDS011;27696;42.704;23.304;2023-03-04T08:36:37;22.00;;;13.73;;
42006;SDS011;27696;42.704;23.304;2023-03-04T08:39:03;20.63;;;13.77;;
42006;SDS011;27696;42.704;23.304;2023-03-04T08:41:29;23.83;;;15.05;;
42006;SDS011;27696;42.704;23.304;2023-03-04T08:43:54;26.02;;;15.65;;
42006;SDS011;27696;42.704;23.304;2023-03-04T08:46:20;19.23;;;14.57;;
42006;SDS011;27696;42.704;23.304;2023-03-04T08:48:45;22.55;;;13.50;;
42006;SDS011;27696;42.704;23.304;2023-03-04T08:51:12;21.00;;;13.48;;
42006;SDS011;27696;42.704;23.304;2023-03-04T08:53:39;17.85;;;12.27;;
42006;SDS011;27696;42.704;23.304;2023-03-04T08:56:04;18.38;;;11.88;;
42006;SDS011;27696;42.704;23.304;2023-03-04T08:58:30;17.33;;;12.23;;
42006;SDS011;27696;42.704;23.304;2023-03-04T09:00:57;17.50;;;12.65;;
42006;SDS011;27696;42.704;23.304;2023-03-04T09:03:23;16.23;;;12.98;;
42006;SDS011;27696;42.704;23.304;2023-03-04T09:05:49;20.42;;;14.30;;
42006;SDS011;27696;42.704;23.304;2023-03-04T09:08:15;19.73;;;12.93;;
42006;SDS011;27696;42.704;23.304;2023-03-04T09:10:40;20.98;;;13.80;;
42006;SDS011;27696;42.704;23.304;2023-03-04T09:13:06;26.85;;;14.82;;
42006;SDS011;27696;42.704;23.304;2023-03-04T09:15:32;18.88;;;13.05;;
42006;SDS011;27696;42.704;23.304;2023-03-04T09:18:01;20.45;;;13.52;;
42006;SDS011;27696;42.704;23.304;2023-03-04T09:20:27;13.75;;;10.50;;
42006;SDS011;27696;42.704;23.304;2023-03-04T09:22:53;20.27;;;10.77;;
42006;SDS011;27696;42.704;23.304;2023-03-04T09:25:19;15.93;;;10.30;;
42006;SDS011;27696;42.704;23.304;2023-03-04T09:27:44;17.23;;;10.27;;
42006;SDS011;27696;42.704;23.304;2023-03-04T09:30:10;16.95;;;11.27;;
42006;SDS011;27696;42.704;23.304;2023-03-04T09:32:36;15.38;;;11.35;;
42006;SDS011;27696;42.704;23.304;2023-03-04T09:35:01;17.80;;;12.23;;
42006;SDS011;27696;42.704;23.304;2023-03-04T09:37:27;22.13;;;13.60;;
42006;SDS011;27696;42.704;23.304;2023-03-04T09:39:53;25.25;;;15.30;;
42006;SDS011;27696;42.704;23.304;2023-03-04T09:42:26;20.92;;;14.65;;
42006;SDS011;27696;42.704;23.304;2023-03-04T09:44:55;20.95;;;15.00;;
42006;SDS011;27696;42.704;23.304;2023-03-04T09:47:21;25.13;;;16.90;;
42006;SDS011;27696;42.704;23.304;2023-03-04T09:49:51;19.70;;;15.13;;
42006;SDS011;27696;42.704;23.304;2023-03-04T10:10:53;22.20;;;15.75;;
42006;SDS011;27696;42.704;23.304;2023-03-04T10:13:24;24.25;;;16.33;;
42006;SDS011;27696;42.704;23.304;2023-03-04T10:16:17;23.77;;;16.17;;
42006;SDS011;27696;42.704;23.304;2023-03-04T10:18:47;24.48;;;16.67;;
42006;SDS011;27696;42.704;23.304;2023-03-04T10:21:19;21.70;;;15.02;;
42006;SDS011;27696;42.704;23.304;2023-03-04T10:23:48;21.75;;;16.13;;
42006;SDS011;27696;42.704;23.304;2023-03-04T10:26:15;22.48;;;15.68;;
42006;SDS011;27696;42.704;23.304;2023-03-04T10:28:44;25.98;;;16.33;;
42006;SDS011;27696;42.704;23.304;2023-03-04T10:31:13;27.65;;;16.52;;
42006;SDS011;27696;42.704;23.304;2023-03-04T10:33:41;21.38;;;16.73;;
42006;SDS011;27696;42.704;23.304;2023-03-04T10:39:10;19.90;;;15.85;;
42006;SDS011;27696;42.704;23.304;2023-03-04T10:41:41;21.42;;;14.52;;
42006;SDS011;27696;42.704;23.304;2023-03-04T10:46:37;20.10;;;15.27;;
42006;SDS011;27696;42.704;23.304;2023-03-04T10:49:08;19.13;;;14.90;;
42006;SDS011;27696;42.704;23.304;2023-03-04T10:51:41;28.33;;;15.20;;
42006;SDS011;27696;42.704;23.304;2023-03-04T10:56:52;21.55;;;15.18;;
42006;SDS011;27696;42.704;23.304;2023-03-04T11:01:49;23.90;;;14.77;;
42006;SDS011;27696;42.704;23.304;2023-03-04T11:04:19;20.52;;;15.85;;
42006;SDS011;27696;42.704;23.304;2023-03-04T11:06:47;23.15;;;16.38;;
42006;SDS011;27696;42.704;23.304;2023-03-04T11:09:45;25.38;;;15.88;;
42006;SDS011;27696;42.704;23.304;2023-03-04T11:12:09;24.63;;;15.05;;
42006;SDS011;27696;42.704;23.304;2023-03-04T11:17:23;21.33;;;15.73;;
42006;SDS011;27696;42.704;23.304;2023-03-04T11:19:59;21.73;;;16.08;;
42006;SDS011;27696;42.704;23.304;2023-03-04T11:22:29;20.70;;;15.13;;
42006;SDS011;27696;42.704;23.304;2023-03-04T11:25:05;20.50;;;14.90;;
42006;SDS011;27696;42.704;23.304;2023-03-04T11:27:43;28.27;;;16.73;;
42006;SDS011;27696;42.704;23.304;2023-03-04T11:32:51;23.13;;;16.60;;
42006;SDS011;27696;42.704;23.304;2023-03-04T11:35:22;23.88;;;16.38;;
42006;SDS011;27696;42.704;23.304;2023-03-04T11:38:06;24.98;;;16.42;;
42006;SDS011;27696;42.704;23.304;2023-03-04T11:40:53;22.77;;;16.55;;
42006;SDS011;27696;42.704;23.304;2023-03-04T11:43:35;22.73;;;16.42;;
42006;SDS011;27696;42.704;23.304;2023-03-04T11:46:06;20.70;;;17.05;;
42006;SDS011;27696;42.704;23.304;2023-03-04T11:56:52;28.63;;;17.63;;
42006;SDS011;27696;42.704;23.304;2023-03-04T12:23:03;27.13;;;17.83;;
42006;SDS011;27696;42.704;23.304;2023-03-04T12:25:36;23.48;;;17.58;;
42006;SDS011;27696;42.704;23.304;2023-03-04T12:36:09;26.90;;;18.88;;
42006;SDS011;27696;42.704;23.304;2023-03-04T12:44:14;22.98;;;18.55;;
42006;SDS011;27696;42.704;23.304;2023-03-04T12:55:18;25.48;;;18.63;;
42006;SDS011;27696;42.704;23.304;2023-03-04T12:57:49;25.98;;;19.23;;
42006;SDS011;27696;42.704;23.304;2023-03-04T13:08:32;25.30;;;17.95;;
42006;SDS011;27696;42.704;23.304;2023-03-04T13:11:01;26.17;;;18.35;;
42006;SDS011;27696;42.704;23.304;2023-03-04T13:13:38;26.67;;;18.52;;
42006;SDS011;27696;42.704;23.304;2023-03-04T13:16:21;23.92;;;17.88;;
42006;SDS011;27696;42.704;23.304;2023-03-04T13:18:56;23.75;;;18.88;;
42006;SDS011;27696;42.704;23.304;2023-03-04T13:23:55;28.13;;;18.95;;
42006;SDS011;27696;42.704;23.304;2023-03-04T13:26:34;30.88;;;20.80;;
42006;SDS011;27696;42.704;23.304;2023-03-04T13:29:43;29.33;;;21.23;;
42006;SDS011;27696;42.704;23.304;2023-03-04T13:32:10;35.17;;;19.58;;
42006;SDS011;27696;42.704;23.304;2023-03-04T13:37:30;29.77;;;20.25;;
42006;SDS011;27696;42.704;23.304;2023-03-04T13:40:39;26.98;;;20.30;;
42006;SDS011;27696;42.704;23.304;2023-03-04T13:42:51;25.27;;;20.02;;
42006;SDS011;27696;42.704;23.304;2023-03-04T13:45:33;28.23;;;20.15;;
42006;SDS011;27696;42.704;23.304;2023-03-04T13:48:00;31.02;;;21.80;;
42006;SDS011;27696;42.704;23.304;2023-03-04T13:50:28;33.58;;;21.65;;
42006;SDS011;27696;42.704;23.304;2023-03-04T13:52:54;30.85;;;20.63;;
42006;SDS011;27696;42.704;23.304;2023-03-04T13:55:39;33.30;;;23.10;;
42006;SDS011;27696;42.704;23.304;2023-03-04T13:58:17;30.15;;;22.10;;
42006;SDS011;27696;42.704;23.304;2023-03-04T14:00:47;27.73;;;20.48;;
42006;SDS011;27696;42.704;23.304;2023-03-04T14:03:34;28.73;;;20.60;;
42006;SDS011;27696;42.704;23.304;2023-03-04T14:06:10;31.13;;;20.63;;
42006;SDS011;27696;42.704;23.304;2023-03-04T14:08:47;30.65;;;20.92;;
42006;SDS011;27696;42.704;23.304;2023-03-04T14:11:23;33.72;;;21.80;;
42006;SDS011;27696;42.704;23.304;2023-03-04T14:13:50;35.15;;;22.05;;
42006;SDS011;27696;42.704;23.304;2023-03-04T14:16:19;32.88;;;23.13;;
42006;SDS011;27696;42.704;23.304;2023-03-04T14:18:54;35.92;;;22.63;;
42006;SDS011;27696;42.704;23.304;2023-03-04T14:21:21;34.13;;;22.48;;
42006;SDS011;27696;42.704;23.304;2023-03-04T14:23:46;41.08;;;24.42;;
42006;SDS011;27696;42.704;23.304;2023-03-04T14:26:24;31.45;;;21.60;;
42006;SDS011;27696;42.704;23.304;2023-03-04T14:28:52;31.95;;;23.60;;
42006;SDS011;27696;42.704;23.304;2023-03-04T14:31:22;37.50;;;24.33;;
42006;SDS011;27696;42.704;23.304;2023-03-04T14:33:49;39.92;;;30.27;;
42006;SDS011;27696;42.704;23.304;2023-03-04T14:36:20;35.25;;;26.38;;
42006;SDS011;27696;42.704;23.304;2023-03-04T14:38:57;35.35;;;24.45;;
42006;SDS011;27696;42.704;23.304;2023-03-04T14:41:34;32.58;;;24.30;;
42006;SDS011;27696;42.704;23.304;2023-03-04T14:46:37;35.88;;;24.17;;
42006;SDS011;27696;42.704;23.304;2023-03-04T14:49:04;37.70;;;24.55;;
42006;SDS011;27696;42.704;23.304;2023-03-04T14:51:39;33.70;;;23.42;;
42006;SDS011;27696;42.704;23.304;2023-03-04T14:57:19;32.75;;;23.35;;
42006;SDS011;27696;42.704;23.304;2023-03-04T14:59:48;36.97;;;23.90;;
42006;SDS011;27696;42.704;23.304;2023-03-04T15:02:18;36.22;;;23.80;;
42006;SDS011;27696;42.704;23.304;2023-03-04T15:04:47;34.85;;;24.33;;
42006;SDS011;27696;42.704;23.304;2023-03-04T15:07:17;35.80;;;25.63;;
42006;SDS011;27696;42.704;23.304;2023-03-04T15:09:51;36.75;;;25.73;;
42006;SDS011;27696;42.704;23.304;2023-03-04T15:12:25;38.30;;;25.40;;
42006;SDS011;27696;42.704;23.304;2023-03-04T15:14:54;35.53;;;24.45;;
42006;SDS011;27696;42.704;23.304;2023-03-04T15:22:35;34.30;;;24.10;;
42006;SDS011;27696;42.704;23.304;2023-03-04T15:25:11;35.13;;;24.52;;
42006;SDS011;27696;42.704;23.304;2023-03-04T15:27:39;37.28;;;24.75;;
42006;SDS011;27696;42.704;23.304;2023-03-04T15:30:05;36.53;;;23.42;;
42006;SDS011;27696;42.704;23.304;2023-03-04T15:32:37;32.58;;;24.65;;
42006;SDS011;27696;42.704;23.304;2023-03-04T15:35:03;38.70;;;26.52;;
42006;SDS011;27696;42.704;23.304;2023-03-04T15:37:28;41.13;;;26.13;;
42006;SDS011;27696;42.704;23.304;2023-03-04T15:39:54;34.63;;;25.02;;
42006;SDS011;27696;42.704;23.304;2023-03-04T15:42:20;31.35;;;23.85;;
42006;SDS011;27696;42.704;23.304;2023-03-04T15:44:46;35.33;;;24.85;;
42006;SDS011;27696;42.704;23.304;2023-03-04T15:47:11;36.78;;;25.92;;
42006;SDS011;27696;42.704;23.304;2023-03-04T15:49:41;38.78;;;26.20;;
42006;SDS011;27696;42.704;23.304;2023-03-04T15:52:12;36.63;;;25.67;;
42006;SDS011;27696;42.704;23.304;2023-03-04T15:54:45;35.65;;;23.75;;
42006;SDS011;27696;42.704;23.304;2023-03-04T15:57:15;37.15;;;24.90;;
42006;SDS011;27696;42.704;23.304;2023-03-04T15:59:45;39.78;;;25.95;;
42006;SDS011;27696;42.704;23.304;2023-03-04T16:02:13;33.40;;;24.45;;
42006;SDS011;27696;42.704;23.304;2023-03-04T16:04:46;33.20;;;24.75;;